createdAt,value
2018-03-27T00:00:03.405Z,988.12
2018-03-27T00:01:10.338Z,988.16
2018-03-27T00:02:17.095Z,988.07
2018-03-27T00:03:23.917Z,988.09
2018-03-27T00:04:30.840Z,988.11
2018-03-27T00:05:37.626Z,988.11
2018-03-27T00:06:44.380Z,988.06
2018-03-27T00:07:51.117Z,988.12
2018-03-27T00:08:57.876Z,988.10
2018-03-27T00:10:04.642Z,988.06
2018-03-27T00:11:11.434Z,988.12
2018-03-27T00:12:18.304Z,988.12
2018-03-27T00:13:25.060Z,988.05
2018-03-27T00:14:31.927Z,988.08
2018-03-27T00:15:38.704Z,988.07
2018-03-27T00:16:45.436Z,988.02
2018-03-27T00:17:52.202Z,988.01
2018-03-27T00:18:58.959Z,988.01
2018-03-27T00:20:05.790Z,988.04
2018-03-27T00:21:12.585Z,988.01
2018-03-27T00:22:19.326Z,988.09
2018-03-27T00:23:26.196Z,988.08
2018-03-27T00:24:32.988Z,988.00
2018-03-27T00:25:40.025Z,988.03
2018-03-27T00:26:46.779Z,988.03
2018-03-27T00:27:53.736Z,988.06
2018-03-27T00:29:00.890Z,987.97
2018-03-27T00:30:08.066Z,988.06
2018-03-27T00:31:15.088Z,988.09
2018-03-27T00:32:22.139Z,988.11
2018-03-27T00:33:29.161Z,988.06
2018-03-27T00:34:36.188Z,988.14
2018-03-27T00:35:43.273Z,987.98
2018-03-27T00:36:50.249Z,988.03
2018-03-27T00:37:57.117Z,988.08
2018-03-27T00:39:04.153Z,988.09
2018-03-27T00:40:10.980Z,988.08
2018-03-27T00:41:17.555Z,988.07
2018-03-27T00:42:24.357Z,988.13
2018-03-27T00:43:31.248Z,988.16
2018-03-27T00:44:38.014Z,988.20
2018-03-27T00:45:44.789Z,988.14
2018-03-27T00:46:51.546Z,988.19
2018-03-27T00:47:58.350Z,988.23
2018-03-27T00:49:05.113Z,988.22
2018-03-27T00:50:11.872Z,988.22
2018-03-27T00:51:18.619Z,988.28
2018-03-27T00:52:25.413Z,988.22
2018-03-27T00:53:32.151Z,988.23
2018-03-27T00:54:38.920Z,988.21
2018-03-27T00:55:45.669Z,988.18
2018-03-27T00:56:52.517Z,988.19
2018-03-27T00:57:59.248Z,988.17
2018-03-27T00:59:06.000Z,988.17
2018-03-27T01:00:12.751Z,988.22
2018-03-27T01:01:19.632Z,988.16
2018-03-27T01:02:26.375Z,988.12
2018-03-27T01:03:33.158Z,988.14
2018-03-27T01:04:39.920Z,988.20
2018-03-27T01:05:46.812Z,988.09
2018-03-27T01:06:53.580Z,988.14
2018-03-27T01:08:00.317Z,988.04
2018-03-27T01:09:07.248Z,988.14
2018-03-27T01:10:14.016Z,988.09
2018-03-27T01:11:20.754Z,988.11
2018-03-27T01:12:27.581Z,988.14
2018-03-27T01:13:34.353Z,988.09
2018-03-27T01:14:41.089Z,988.12
2018-03-27T01:15:47.841Z,988.06
2018-03-27T01:16:54.671Z,988.08
2018-03-27T01:18:01.443Z,988.09
2018-03-27T01:19:08.276Z,988.10
2018-03-27T01:20:15.068Z,988.08
2018-03-27T01:21:21.880Z,988.05
2018-03-27T01:22:28.676Z,988.09
2018-03-27T01:23:35.569Z,987.96
2018-03-27T01:24:42.320Z,987.90
2018-03-27T01:25:49.157Z,987.96
2018-03-27T01:26:55.916Z,987.89
2018-03-27T01:28:02.738Z,987.91
2018-03-27T01:29:09.473Z,987.86
2018-03-27T01:30:16.338Z,987.88
2018-03-27T01:31:23.080Z,987.90
2018-03-27T01:32:29.862Z,987.83
2018-03-27T01:33:36.622Z,987.91
2018-03-27T01:34:43.373Z,987.81
2018-03-27T01:35:50.156Z,987.78
2018-03-27T01:36:56.961Z,987.72
2018-03-27T01:38:03.789Z,987.70
2018-03-27T01:39:10.543Z,987.73
2018-03-27T01:40:17.293Z,987.69
2018-03-27T01:41:24.044Z,987.76
2018-03-27T01:42:30.867Z,987.78
2018-03-27T01:43:37.618Z,987.79
2018-03-27T01:44:44.398Z,987.73
2018-03-27T01:45:51.285Z,987.67
2018-03-27T01:46:58.048Z,987.65
2018-03-27T01:48:04.849Z,987.71
2018-03-27T01:49:11.691Z,987.68
2018-03-27T01:50:18.401Z,987.65
2018-03-27T01:51:25.171Z,987.63
2018-03-27T01:52:31.950Z,987.52
2018-03-27T01:53:38.765Z,987.59
2018-03-27T01:54:45.477Z,987.60
2018-03-27T01:55:52.219Z,987.62
2018-03-27T01:56:58.997Z,987.62
2018-03-27T01:58:05.868Z,987.57
2018-03-27T01:59:12.618Z,987.61
2018-03-27T02:00:19.397Z,987.58
2018-03-27T02:01:26.113Z,987.55
2018-03-27T02:02:32.935Z,987.56
2018-03-27T02:03:39.688Z,987.58
2018-03-27T02:04:46.423Z,987.64
2018-03-27T02:05:53.375Z,987.58
2018-03-27T02:07:00.132Z,987.52
2018-03-27T02:08:06.928Z,987.58
2018-03-27T02:09:13.784Z,987.52
2018-03-27T02:10:20.551Z,987.55
2018-03-27T02:11:27.290Z,987.51
2018-03-27T02:12:34.011Z,987.51
2018-03-27T02:13:41.002Z,987.49
2018-03-27T02:14:47.724Z,987.43
2018-03-27T02:15:54.768Z,987.43
2018-03-27T02:17:01.758Z,987.40
2018-03-27T02:18:08.731Z,987.42
2018-03-27T02:19:15.835Z,987.44
2018-03-27T02:20:22.683Z,987.37
2018-03-27T02:21:29.464Z,987.37
2018-03-27T02:22:36.233Z,987.34
2018-03-27T02:23:43.161Z,987.31
2018-03-27T02:24:50.113Z,987.28
2018-03-27T02:25:56.908Z,987.34
2018-03-27T02:27:03.672Z,987.33
2018-03-27T02:28:10.432Z,987.34
2018-03-27T02:29:17.196Z,987.30
2018-03-27T02:30:23.961Z,987.38
2018-03-27T02:31:30.710Z,987.36
2018-03-27T02:32:37.485Z,987.35
2018-03-27T02:33:44.264Z,987.38
2018-03-27T02:34:51.096Z,987.43
2018-03-27T02:35:57.834Z,987.39
2018-03-27T02:37:04.557Z,987.35
2018-03-27T02:38:11.309Z,987.41
2018-03-27T02:39:18.145Z,987.34
2018-03-27T02:40:24.898Z,987.39
2018-03-27T02:41:31.666Z,987.40
2018-03-27T02:42:38.412Z,987.39
2018-03-27T02:43:45.222Z,987.38
2018-03-27T02:44:52.002Z,987.35
2018-03-27T02:45:58.757Z,987.30
2018-03-27T02:47:05.668Z,987.26
2018-03-27T02:48:12.431Z,987.30
2018-03-27T02:49:19.233Z,987.33
2018-03-27T02:50:25.974Z,987.33
2018-03-27T02:51:32.757Z,987.36
2018-03-27T02:52:39.553Z,987.33
2018-03-27T02:53:46.334Z,987.27
2018-03-27T02:54:53.235Z,987.30
2018-03-27T02:55:59.989Z,987.27
2018-03-27T02:57:06.798Z,987.26
2018-03-27T02:58:13.638Z,987.25
2018-03-27T02:59:20.420Z,987.32
2018-03-27T03:00:27.206Z,987.29
2018-03-27T03:01:33.944Z,987.31
2018-03-27T03:02:40.745Z,987.32
2018-03-27T03:03:47.490Z,987.27
2018-03-27T03:04:54.295Z,987.23
2018-03-27T03:06:01.158Z,987.30
2018-03-27T03:07:07.892Z,987.28
2018-03-27T03:08:14.678Z,987.24
2018-03-27T03:09:21.440Z,987.28
2018-03-27T03:10:28.241Z,987.28
2018-03-27T03:11:35.017Z,987.20
2018-03-27T03:12:41.792Z,987.28
2018-03-27T03:13:48.650Z,987.23
2018-03-27T03:14:55.403Z,987.23
2018-03-27T03:16:02.168Z,987.17
2018-03-27T03:17:08.975Z,987.23
2018-03-27T03:18:15.724Z,987.14
2018-03-27T03:19:22.478Z,987.14
2018-03-27T03:20:29.258Z,987.05
2018-03-27T03:21:36.005Z,987.13
2018-03-27T03:22:42.806Z,987.07
2018-03-27T03:23:49.512Z,987.17
2018-03-27T03:24:56.397Z,987.14
2018-03-27T03:26:03.269Z,987.11
2018-03-27T03:27:10.020Z,987.11
2018-03-27T03:28:16.814Z,987.11
2018-03-27T03:29:23.656Z,987.14
2018-03-27T03:30:30.374Z,987.06
2018-03-27T03:31:37.149Z,987.09
2018-03-27T03:32:44.061Z,987.05
2018-03-27T03:33:50.780Z,987.03
2018-03-27T03:34:57.545Z,987.09
2018-03-27T03:36:04.296Z,987.09
2018-03-27T03:37:11.126Z,987.11
2018-03-27T03:38:17.937Z,987.12
2018-03-27T03:39:24.931Z,987.09
2018-03-27T03:40:31.686Z,987.09
2018-03-27T03:41:38.505Z,987.08
2018-03-27T03:42:45.354Z,987.21
2018-03-27T03:43:52.098Z,987.16
2018-03-27T03:44:58.902Z,987.10
2018-03-27T03:46:05.937Z,987.07
2018-03-27T03:47:12.949Z,987.12
2018-03-27T03:48:19.812Z,987.04
2018-03-27T03:49:26.596Z,987.06
2018-03-27T03:50:33.342Z,987.12
2018-03-27T03:51:40.291Z,987.09
2018-03-27T03:52:47.175Z,987.13
2018-03-27T03:53:54.268Z,987.09
2018-03-27T03:55:01.154Z,987.15
2018-03-27T03:56:08.006Z,987.04
2018-03-27T03:57:14.949Z,987.17
2018-03-27T03:58:21.844Z,987.09
2018-03-27T03:59:28.669Z,987.10
2018-03-27T04:00:35.530Z,987.14
2018-03-27T04:01:42.240Z,987.05
2018-03-27T04:02:49.005Z,987.03
2018-03-27T04:03:55.766Z,987.07
2018-03-27T04:05:02.518Z,987.12
2018-03-27T04:06:09.300Z,987.09
2018-03-27T04:07:16.054Z,987.14
2018-03-27T04:08:22.793Z,987.03
2018-03-27T04:09:29.718Z,987.04
2018-03-27T04:10:36.453Z,987.10
2018-03-27T04:11:43.206Z,986.98
2018-03-27T04:12:49.966Z,986.91
2018-03-27T04:13:56.784Z,986.96
2018-03-27T04:15:03.596Z,986.91
2018-03-27T04:16:10.333Z,986.90
2018-03-27T04:17:17.061Z,986.92
2018-03-27T04:18:23.873Z,986.95
2018-03-27T04:19:30.603Z,986.87
2018-03-27T04:20:37.365Z,986.89
2018-03-27T04:21:44.109Z,986.90
2018-03-27T04:22:50.896Z,986.96
2018-03-27T04:23:57.637Z,986.92
2018-03-27T04:25:04.444Z,986.85
2018-03-27T04:26:11.320Z,986.91
2018-03-27T04:27:18.166Z,986.91
2018-03-27T04:28:25.040Z,986.87
2018-03-27T04:29:31.769Z,986.85
2018-03-27T04:30:38.503Z,986.93
2018-03-27T04:31:45.225Z,986.85
2018-03-27T04:32:51.983Z,986.91
2018-03-27T04:33:58.796Z,986.89
2018-03-27T04:35:05.545Z,986.83
2018-03-27T04:36:12.305Z,986.86
2018-03-27T04:37:19.017Z,986.84
2018-03-27T04:38:25.865Z,986.86
2018-03-27T04:39:32.617Z,986.73
2018-03-27T04:40:39.402Z,986.81
2018-03-27T04:41:46.324Z,986.78
2018-03-27T04:42:53.081Z,986.79
2018-03-27T04:43:59.842Z,986.74
2018-03-27T04:45:06.664Z,986.70
2018-03-27T04:46:13.432Z,986.72
2018-03-27T04:47:20.184Z,986.73
2018-03-27T04:48:26.934Z,986.76
2018-03-27T04:49:33.726Z,986.75
2018-03-27T04:50:40.468Z,986.78
2018-03-27T04:51:47.244Z,986.69
2018-03-27T04:52:53.980Z,986.80
2018-03-27T04:54:00.808Z,986.73
2018-03-27T04:55:07.570Z,986.83
2018-03-27T04:56:14.302Z,986.78
2018-03-27T04:57:21.065Z,986.84
2018-03-27T04:58:27.890Z,986.80
2018-03-27T04:59:34.632Z,986.83
2018-03-27T05:00:41.459Z,986.74
2018-03-27T05:01:48.284Z,986.80
2018-03-27T05:02:55.077Z,986.72
2018-03-27T05:04:01.910Z,986.72
2018-03-27T05:05:08.722Z,986.72
2018-03-27T05:06:15.500Z,986.60
2018-03-27T05:07:22.298Z,986.74
2018-03-27T05:08:29.137Z,986.57
2018-03-27T05:09:35.900Z,986.66
2018-03-27T05:10:42.665Z,986.51
2018-03-27T05:11:49.399Z,986.65
2018-03-27T05:12:56.223Z,986.57
2018-03-27T05:14:02.974Z,986.65
2018-03-27T05:15:09.907Z,986.57
2018-03-27T05:16:16.653Z,986.61
2018-03-27T05:17:23.397Z,986.68
2018-03-27T05:18:30.177Z,986.55
2018-03-27T05:19:36.919Z,986.58
2018-03-27T05:20:43.769Z,986.53
2018-03-27T05:21:50.865Z,986.61
2018-03-27T05:22:57.592Z,986.46
2018-03-27T05:24:04.360Z,986.59
2018-03-27T05:25:11.136Z,986.62
2018-03-27T05:26:17.925Z,986.55
2018-03-27T05:27:24.676Z,986.64
2018-03-27T05:28:31.477Z,986.57
2018-03-27T05:29:38.284Z,986.57
2018-03-27T05:30:45.081Z,986.61
2018-03-27T05:31:51.865Z,986.61
2018-03-27T05:32:58.676Z,986.57
2018-03-27T05:34:05.512Z,986.63
2018-03-27T05:35:12.276Z,986.66
2018-03-27T05:36:19.070Z,986.59
2018-03-27T05:37:25.836Z,986.62
2018-03-27T05:38:32.580Z,986.66
2018-03-27T05:39:39.329Z,986.61
2018-03-27T05:40:46.155Z,986.64
2018-03-27T05:41:52.884Z,986.60
2018-03-27T05:42:59.642Z,986.63
2018-03-27T05:44:06.482Z,986.58
2018-03-27T05:45:13.218Z,986.50
2018-03-27T05:46:20.001Z,986.52
2018-03-27T05:47:26.752Z,986.52
2018-03-27T05:48:33.489Z,986.58
2018-03-27T05:49:40.291Z,986.55
2018-03-27T05:50:47.181Z,986.52
2018-03-27T05:51:54.061Z,986.60
2018-03-27T05:53:00.864Z,986.50
2018-03-27T05:54:07.620Z,986.44
2018-03-27T05:55:14.383Z,986.38
2018-03-27T05:56:21.167Z,986.43
2018-03-27T05:57:27.907Z,986.42
2018-03-27T05:58:34.644Z,986.42
2018-03-27T05:59:41.393Z,986.37
2018-03-27T06:00:48.204Z,986.35
2018-03-27T06:01:54.936Z,986.35
2018-03-27T06:03:01.747Z,986.39
2018-03-27T06:04:08.633Z,986.37
2018-03-27T06:05:15.367Z,986.46
2018-03-27T06:06:22.113Z,986.45
2018-03-27T06:07:28.887Z,986.37
2018-03-27T06:08:35.809Z,986.34
2018-03-27T06:09:42.548Z,986.43
2018-03-27T06:10:49.315Z,986.35
2018-03-27T06:11:56.136Z,986.35
2018-03-27T06:13:02.893Z,986.41
2018-03-27T06:14:09.721Z,986.36
2018-03-27T06:15:16.532Z,986.41
2018-03-27T06:16:23.506Z,986.36
2018-03-27T06:17:30.330Z,986.35
2018-03-27T06:18:37.153Z,986.33
2018-03-27T06:19:44.176Z,986.36
2018-03-27T06:20:50.963Z,986.36
2018-03-27T06:21:57.712Z,986.30
2018-03-27T06:23:04.548Z,986.31
2018-03-27T06:24:11.272Z,986.32
2018-03-27T06:25:18.016Z,986.33
2018-03-27T06:26:24.745Z,986.31
2018-03-27T06:27:31.617Z,986.18
2018-03-27T06:28:38.364Z,986.26
2018-03-27T06:29:45.116Z,986.31
2018-03-27T06:30:51.841Z,986.25
2018-03-27T06:31:58.656Z,986.29
2018-03-27T06:33:05.401Z,986.19
2018-03-27T06:34:12.153Z,986.22
2018-03-27T06:35:18.893Z,986.27
2018-03-27T06:36:25.711Z,986.20
2018-03-27T06:37:32.474Z,986.26
2018-03-27T06:38:39.231Z,986.22
2018-03-27T06:39:45.956Z,986.24
2018-03-27T06:40:52.768Z,986.20
2018-03-27T06:41:59.477Z,986.27
2018-03-27T06:43:06.224Z,986.21
2018-03-27T06:44:12.961Z,986.18
2018-03-27T06:45:19.712Z,986.20
2018-03-27T06:46:26.456Z,986.16
2018-03-27T06:47:33.221Z,986.17
2018-03-27T06:48:40.018Z,986.04
2018-03-27T06:49:46.885Z,986.13
2018-03-27T06:50:53.608Z,986.06
2018-03-27T06:52:00.365Z,986.06
2018-03-27T06:53:07.100Z,985.99
2018-03-27T06:54:13.837Z,986.01
2018-03-27T06:55:20.612Z,985.99
2018-03-27T06:56:27.362Z,986.01
2018-03-27T06:57:34.188Z,985.97
2018-03-27T06:58:41.000Z,985.98
2018-03-27T06:59:47.768Z,985.97
2018-03-27T07:00:54.529Z,985.93
2018-03-27T07:02:01.249Z,985.92
2018-03-27T07:03:08.103Z,985.95
2018-03-27T07:04:14.841Z,985.92
2018-03-27T07:05:21.643Z,985.84
2018-03-27T07:06:28.358Z,985.89
2018-03-27T07:07:35.129Z,985.93
2018-03-27T07:08:41.849Z,985.86
2018-03-27T07:09:48.618Z,985.95
2018-03-27T07:10:55.380Z,985.87
2018-03-27T07:12:02.229Z,985.90
2018-03-27T07:13:09.008Z,985.89
2018-03-27T07:14:15.780Z,985.86
2018-03-27T07:15:22.926Z,985.82
2018-03-27T07:16:29.680Z,985.80
2018-03-27T07:17:36.424Z,985.81
2018-03-27T07:18:43.143Z,985.75
2018-03-27T07:19:49.926Z,985.81
2018-03-27T07:20:56.724Z,985.77
2018-03-27T07:22:03.486Z,985.65
2018-03-27T07:23:10.192Z,985.76
2018-03-27T07:24:16.942Z,985.71
2018-03-27T07:25:23.713Z,985.76
2018-03-27T07:26:30.568Z,985.73
2018-03-27T07:27:37.305Z,985.66
2018-03-27T07:28:44.079Z,985.72
2018-03-27T07:29:50.808Z,985.66
2018-03-27T07:30:57.645Z,985.70
2018-03-27T07:32:04.388Z,985.65
2018-03-27T07:33:11.104Z,985.65
2018-03-27T07:34:17.845Z,985.64
2018-03-27T07:35:24.797Z,985.66
2018-03-27T07:36:31.566Z,985.56
2018-03-27T07:37:38.318Z,985.62
2018-03-27T07:38:45.080Z,985.58
2018-03-27T07:39:51.788Z,985.53
2018-03-27T07:40:58.557Z,985.47
2018-03-27T07:42:05.296Z,985.49
2018-03-27T07:43:12.144Z,985.53
2018-03-27T07:44:18.873Z,985.50
2018-03-27T07:45:25.608Z,985.51
2018-03-27T07:46:32.381Z,985.44
2018-03-27T07:47:39.181Z,985.49
2018-03-27T07:48:45.900Z,985.45
2018-03-27T07:49:52.701Z,985.43
2018-03-27T07:50:59.446Z,985.38
2018-03-27T07:52:06.228Z,985.43
2018-03-27T07:53:12.994Z,985.42
2018-03-27T07:54:19.732Z,985.34
2018-03-27T07:55:26.456Z,985.34
2018-03-27T07:56:33.300Z,985.37
2018-03-27T07:57:40.028Z,985.33
2018-03-27T07:58:46.791Z,985.28
2018-03-27T07:59:53.537Z,985.36
2018-03-27T08:01:00.412Z,985.43
2018-03-27T08:02:07.283Z,985.33
2018-03-27T08:03:14.003Z,985.33
2018-03-27T08:04:20.790Z,985.38
2018-03-27T08:05:27.507Z,985.32
2018-03-27T08:06:34.256Z,985.35
2018-03-27T08:07:41.137Z,985.35
2018-03-27T08:08:47.868Z,985.32
2018-03-27T08:09:54.609Z,985.34
2018-03-27T08:11:01.689Z,985.28
2018-03-27T08:12:08.390Z,985.26
2018-03-27T08:13:15.127Z,985.30
2018-03-27T08:14:21.861Z,985.28
2018-03-27T08:15:28.684Z,985.24
2018-03-27T08:16:35.427Z,985.29
2018-03-27T08:17:42.221Z,985.21
2018-03-27T08:18:48.965Z,985.22
2018-03-27T08:19:55.732Z,985.12
2018-03-27T08:21:02.568Z,985.19
2018-03-27T08:22:09.327Z,985.18
2018-03-27T08:23:16.170Z,985.15
2018-03-27T08:24:23.007Z,985.11
2018-03-27T08:25:29.737Z,985.10
2018-03-27T08:26:36.593Z,985.04
2018-03-27T08:27:43.341Z,985.08
2018-03-27T08:28:50.163Z,985.10
2018-03-27T08:29:56.999Z,985.13
2018-03-27T08:31:03.731Z,984.98
2018-03-27T08:32:10.450Z,985.03
2018-03-27T08:33:17.225Z,985.06
2018-03-27T08:34:24.140Z,985.09
2018-03-27T08:35:30.876Z,985.04
2018-03-27T08:36:37.621Z,985.03
2018-03-27T08:37:44.457Z,985.06
2018-03-27T08:38:51.227Z,985.11
2018-03-27T08:39:58.011Z,985.01
2018-03-27T08:41:04.861Z,985.02
2018-03-27T08:42:11.596Z,985.04
2018-03-27T08:43:18.438Z,984.99
2018-03-27T08:44:25.112Z,984.99
2018-03-27T08:45:31.928Z,984.99
2018-03-27T08:46:38.692Z,984.93
2018-03-27T08:47:45.411Z,984.85
2018-03-27T08:48:52.188Z,984.85
2018-03-27T08:49:58.974Z,984.83
2018-03-27T08:51:05.772Z,984.87
2018-03-27T08:52:12.542Z,984.88
2018-03-27T08:53:19.632Z,984.86
2018-03-27T08:54:26.397Z,984.81
2018-03-27T08:55:33.189Z,984.81
2018-03-27T08:56:39.929Z,984.85
2018-03-27T08:57:46.687Z,984.77
2018-03-27T08:58:53.456Z,984.81
2018-03-27T09:00:00.230Z,984.79
2018-03-27T09:01:07.110Z,984.75
2018-03-27T09:02:13.841Z,984.74
2018-03-27T09:03:20.657Z,984.66
2018-03-27T09:04:27.414Z,984.66
2018-03-27T09:05:34.179Z,984.71
2018-03-27T09:06:40.913Z,984.67
2018-03-27T09:07:47.705Z,984.60
2018-03-27T09:08:54.443Z,984.64
2018-03-27T09:10:01.267Z,984.66
2018-03-27T09:11:08.152Z,984.57
2018-03-27T09:12:14.897Z,984.55
2018-03-27T09:13:21.664Z,984.57
2018-03-27T09:14:28.420Z,984.62
2018-03-27T09:15:35.324Z,984.58
2018-03-27T09:16:42.068Z,984.60
2018-03-27T09:17:48.833Z,984.53
2018-03-27T09:18:55.662Z,984.58
2018-03-27T09:20:02.420Z,984.55
2018-03-27T09:21:09.201Z,984.54
2018-03-27T09:22:15.914Z,984.53
2018-03-27T09:23:22.799Z,984.47
2018-03-27T09:24:29.552Z,984.42
2018-03-27T09:25:36.310Z,984.41
2018-03-27T09:26:43.039Z,984.43
2018-03-27T09:27:49.929Z,984.44
2018-03-27T09:28:56.672Z,984.39
2018-03-27T09:30:03.453Z,984.30
2018-03-27T09:31:10.243Z,984.25
2018-03-27T09:32:16.994Z,984.29
2018-03-27T09:33:23.770Z,984.28
2018-03-27T09:34:30.501Z,984.27
2018-03-27T09:35:37.348Z,984.27
2018-03-27T09:36:44.164Z,984.23
2018-03-27T09:37:50.889Z,984.24
2018-03-27T09:38:57.607Z,984.24
2018-03-27T09:40:04.435Z,984.24
2018-03-27T09:41:11.204Z,984.20
2018-03-27T09:42:17.974Z,984.23
2018-03-27T09:43:24.734Z,984.21
2018-03-27T09:44:31.494Z,984.22
2018-03-27T09:45:38.282Z,984.21
2018-03-27T09:46:45.040Z,984.23
2018-03-27T09:47:57.001Z,984.21
2018-03-27T09:49:04.022Z,984.28
2018-03-27T09:50:10.973Z,984.21
2018-03-27T09:51:12.717Z,984.24
2018-03-27T09:52:19.498Z,984.19
2018-03-27T09:53:26.235Z,984.17
2018-03-27T09:54:32.982Z,984.12
2018-03-27T09:55:39.748Z,984.12
2018-03-27T09:56:46.564Z,984.16
2018-03-27T09:57:53.321Z,984.08
2018-03-27T09:59:00.107Z,984.08
2018-03-27T10:00:06.856Z,984.00
2018-03-27T10:01:13.660Z,984.05
2018-03-27T10:02:20.469Z,984.03
2018-03-27T10:03:27.219Z,984.02
2018-03-27T10:04:33.938Z,984.02
2018-03-27T10:05:40.728Z,983.97
2018-03-27T10:06:47.486Z,984.00
2018-03-27T10:07:54.232Z,983.95
2018-03-27T10:09:01.118Z,983.99
2018-03-27T10:10:08.001Z,983.88
2018-03-27T10:11:14.762Z,984.01
2018-03-27T10:12:21.517Z,983.98
2018-03-27T10:13:28.256Z,983.99
2018-03-27T10:14:34.998Z,983.94
2018-03-27T10:15:41.730Z,983.99
2018-03-27T10:16:48.557Z,983.95
2018-03-27T10:17:55.425Z,983.94
2018-03-27T10:19:02.173Z,984.00
2018-03-27T10:20:08.926Z,983.94
2018-03-27T10:21:15.710Z,983.96
2018-03-27T10:22:22.498Z,983.92
2018-03-27T10:23:29.293Z,983.98
2018-03-27T10:24:36.036Z,984.02
2018-03-27T10:25:42.785Z,983.96
2018-03-27T10:26:49.745Z,983.89
2018-03-27T10:27:56.528Z,983.89
2018-03-27T10:29:03.285Z,983.86
2018-03-27T10:30:10.105Z,983.91
2018-03-27T10:31:16.848Z,983.88
2018-03-27T10:32:23.601Z,983.83
2018-03-27T10:33:30.369Z,983.85
2018-03-27T10:34:37.170Z,983.81
2018-03-27T10:35:43.897Z,983.78
2018-03-27T10:36:50.685Z,983.82
2018-03-27T10:37:57.444Z,983.75
2018-03-27T10:39:04.192Z,983.77
2018-03-27T10:40:10.977Z,983.74
2018-03-27T10:41:17.767Z,983.72
2018-03-27T10:42:24.517Z,983.78
2018-03-27T10:43:31.260Z,983.70
2018-03-27T10:44:38.003Z,983.76
2018-03-27T10:45:44.776Z,983.68
2018-03-27T10:46:51.610Z,983.75
2018-03-27T10:47:58.387Z,983.77
2018-03-27T10:49:05.142Z,983.74
2018-03-27T10:50:11.897Z,983.68
2018-03-27T10:51:18.695Z,983.78
2018-03-27T10:52:25.444Z,983.62
2018-03-27T10:53:32.189Z,983.65
2018-03-27T10:54:38.998Z,983.58
2018-03-27T10:55:45.761Z,983.65
2018-03-27T10:56:52.506Z,983.71
2018-03-27T10:57:59.253Z,983.65
2018-03-27T10:59:05.993Z,983.64
2018-03-27T11:00:12.801Z,983.67
2018-03-27T11:01:19.569Z,983.66
2018-03-27T11:02:26.297Z,983.68
2018-03-27T11:03:33.086Z,983.67
2018-03-27T11:04:40.124Z,983.68
2018-03-27T11:05:46.958Z,983.68
2018-03-27T11:06:53.689Z,983.59
2018-03-27T11:08:00.468Z,983.62
2018-03-27T11:09:07.258Z,983.64
2018-03-27T11:10:14.161Z,983.66
2018-03-27T11:11:20.910Z,983.63
2018-03-27T11:12:27.641Z,983.60
2018-03-27T11:13:34.505Z,983.60
2018-03-27T11:14:41.257Z,983.64
2018-03-27T11:15:48.005Z,983.56
2018-03-27T11:16:54.768Z,983.55
2018-03-27T11:18:01.545Z,983.59
2018-03-27T11:19:08.557Z,983.58
2018-03-27T11:20:15.333Z,983.55
2018-03-27T11:21:22.114Z,983.53
2018-03-27T11:22:28.844Z,983.56
2018-03-27T11:23:35.591Z,983.59
2018-03-27T11:24:42.420Z,983.56
2018-03-27T11:25:49.177Z,983.61
2018-03-27T11:26:55.961Z,983.56
2018-03-27T11:28:02.822Z,983.50
2018-03-27T11:29:09.606Z,983.48
2018-03-27T11:30:16.391Z,983.45
2018-03-27T11:31:23.126Z,983.38
2018-03-27T11:32:29.888Z,983.44
2018-03-27T11:33:36.609Z,983.39
2018-03-27T11:34:43.399Z,983.41
2018-03-27T11:35:50.149Z,983.37
2018-03-27T11:36:56.949Z,983.34
2018-03-27T11:38:03.669Z,983.34
2018-03-27T11:39:10.513Z,983.28
2018-03-27T11:40:17.266Z,983.31
2018-03-27T11:41:24.014Z,983.24
2018-03-27T11:42:30.797Z,983.24
2018-03-27T11:43:37.573Z,983.25
2018-03-27T11:44:44.296Z,983.20
2018-03-27T11:45:51.097Z,983.25
2018-03-27T11:46:57.841Z,983.26
2018-03-27T11:48:04.634Z,983.27
2018-03-27T11:49:11.362Z,983.28
2018-03-27T11:50:18.149Z,983.22
2018-03-27T11:51:24.886Z,983.30
2018-03-27T11:52:31.628Z,983.21
2018-03-27T11:53:38.389Z,983.25
2018-03-27T11:54:45.180Z,983.29
2018-03-27T11:55:51.989Z,983.22
2018-03-27T11:56:58.861Z,983.26
2018-03-27T11:58:05.620Z,983.20
2018-03-27T11:59:12.351Z,983.28
2018-03-27T12:00:19.156Z,983.24
2018-03-27T12:01:25.872Z,983.25
2018-03-27T12:02:32.713Z,983.25
2018-03-27T12:03:39.462Z,983.21
2018-03-27T12:04:46.226Z,983.18
2018-03-27T12:05:52.999Z,983.31
2018-03-27T12:06:59.785Z,983.24
2018-03-27T12:08:06.544Z,983.18
2018-03-27T12:09:13.297Z,983.19
2018-03-27T12:10:20.049Z,983.16
2018-03-27T12:11:26.866Z,983.15
2018-03-27T12:12:33.584Z,983.16
2018-03-27T12:13:40.314Z,983.16
2018-03-27T12:14:47.079Z,983.12
2018-03-27T12:15:53.831Z,983.11
2018-03-27T12:17:00.624Z,983.14
2018-03-27T12:18:07.436Z,983.06
2018-03-27T12:19:14.193Z,983.00
2018-03-27T12:20:21.047Z,982.98
2018-03-27T12:21:27.808Z,982.97
2018-03-27T12:22:34.548Z,983.00
2018-03-27T12:23:41.316Z,982.97
2018-03-27T12:24:48.154Z,983.02
2018-03-27T12:25:54.885Z,982.89
2018-03-27T12:27:01.710Z,982.96
2018-03-27T12:28:08.672Z,982.98
2018-03-27T12:29:15.384Z,982.92
2018-03-27T12:30:22.132Z,982.94
2018-03-27T12:31:28.890Z,982.86
2018-03-27T12:32:35.769Z,982.86
2018-03-27T12:33:42.528Z,982.89
2018-03-27T12:34:49.270Z,982.91
2018-03-27T12:35:56.118Z,982.94
2018-03-27T12:37:02.962Z,982.88
2018-03-27T12:38:09.728Z,982.87
2018-03-27T12:39:16.561Z,982.83
2018-03-27T12:40:23.296Z,982.81
2018-03-27T12:41:30.036Z,982.72
2018-03-27T12:42:36.855Z,982.71
2018-03-27T12:43:43.657Z,982.67
2018-03-27T12:44:50.377Z,982.71
2018-03-27T12:45:57.130Z,982.73
2018-03-27T12:47:03.923Z,982.66
2018-03-27T12:48:10.749Z,982.64
2018-03-27T12:49:17.613Z,982.67
2018-03-27T12:50:24.337Z,982.60
2018-03-27T12:51:31.190Z,982.55
2018-03-27T12:52:37.988Z,982.58
2018-03-27T12:53:44.749Z,982.56
2018-03-27T12:54:51.486Z,982.57
2018-03-27T12:55:58.293Z,982.53
2018-03-27T12:57:05.049Z,982.57
2018-03-27T12:58:11.817Z,982.51
2018-03-27T12:59:18.544Z,982.49
2018-03-27T13:00:25.346Z,982.44
2018-03-27T13:01:32.108Z,982.41
2018-03-27T13:02:38.868Z,982.42
2018-03-27T13:03:45.591Z,982.37
2018-03-27T13:04:52.432Z,982.40
2018-03-27T13:05:59.163Z,982.38
2018-03-27T13:07:05.916Z,982.36
2018-03-27T13:08:12.681Z,982.32
2018-03-27T13:09:19.518Z,982.29
2018-03-27T13:10:26.289Z,982.32
2018-03-27T13:11:33.029Z,982.29
2018-03-27T13:12:39.798Z,982.32
2018-03-27T13:13:46.601Z,982.28
2018-03-27T13:14:53.328Z,982.22
2018-03-27T13:16:00.165Z,982.23
2018-03-27T13:17:07.065Z,982.13
2018-03-27T13:18:13.845Z,982.23
2018-03-27T13:19:20.621Z,982.19
2018-03-27T13:20:27.572Z,982.20
2018-03-27T13:21:34.402Z,982.15
2018-03-27T13:22:41.237Z,982.20
2018-03-27T13:23:48.168Z,982.18
2018-03-27T13:24:55.046Z,982.08
2018-03-27T13:26:01.786Z,982.06
2018-03-27T13:27:08.627Z,982.09
2018-03-27T13:28:15.404Z,982.05
2018-03-27T13:29:22.189Z,982.07
2018-03-27T13:30:29.008Z,982.05
2018-03-27T13:31:35.762Z,982.06
2018-03-27T13:32:42.628Z,982.03
2018-03-27T13:33:49.409Z,981.92
2018-03-27T13:34:56.175Z,981.95
2018-03-27T13:36:02.978Z,981.92
2018-03-27T13:37:09.817Z,981.97
2018-03-27T13:38:16.582Z,981.90
2018-03-27T13:39:23.388Z,981.81
2018-03-27T13:40:30.185Z,981.81
2018-03-27T13:41:36.974Z,981.81
2018-03-27T13:42:43.752Z,981.82
2018-03-27T13:43:50.719Z,981.84
2018-03-27T13:44:57.506Z,981.77
2018-03-27T13:46:04.348Z,981.73
2018-03-27T13:47:11.113Z,981.77
2018-03-27T13:48:17.870Z,981.66
2018-03-27T13:49:24.670Z,981.75
2018-03-27T13:50:31.469Z,981.61
2018-03-27T13:51:38.344Z,981.61
2018-03-27T13:52:45.140Z,981.54